Cotes De Bretagne — FW3973 — position and weather

sailwx.info

Track history (hours):
 
Tides and Currents Weather Stations Pressure Air Temp Water Temp Dewpoint Dewpoint Depression Visibility Wind Speed Wind Dir Waves Ship Positions

Cotes De Bretagne

Last reported at 2014-Jul-24 01:33 UTC. Time now 2014-Jul-24 01:51 UTC.
Position N 46°30' W 001°48'.

Length 75 m; draft 4.5 m.

Type: Dredging. MMSI: 227003850.

Date/timePositionNaut miles runAvg speedWind from/ knotsBaromVisibWave heightAir tempDewpointWater temp
2014-Jul-24 01:33N 46°30' W 001°48'0 0.0
2014-Jul-24 00:33N 46°30' W 001°48'2 1.7
2014-Jul-23 23:32N 46°28' W 001°47'0 0.0
2014-Jul-23 22:32N 46°28' W 001°47'2 2.3
2014-Jul-23 21:33N 46°26' W 001°46'9 8.7
2014-Jul-23 20:33N 46°18' W 001°44'9 8.7
2014-Jul-23 19:33N 46°10' W 001°39'5 5.0
2014-Jul-23 18:32N 46°05' W 001°35'0 0.1
2014-Jul-23 17:24N 46°05' W 001°36'2 1.7
2014-Jul-23 16:28N 46°06' W 001°36'1010.9
2014-Jul-23 15:33N 46°15' W 001°43'1110.8
2014-Jul-23 14:33N 46°26' W 001°46'4 4.4
2014-Jul-23 13:33N 46°30' W 001°48'0 0.0
2014-Jul-23 12:33N 46°30' W 001°48'2 1.8
2014-Jul-23 11:33N 46°28' W 001°47'0 0.0
2014-Jul-23 10:33N 46°28' W 001°47'0 0.0
2014-Jul-23 09:33N 46°28' W 001°47'0 0.0
2014-Jul-23 08:33N 46°28' W 001°47'0 0.1
2014-Jul-23 07:33N 46°28' W 001°47'7 6.7
2014-Jul-23 06:33N 46°22' W 001°46'9 8.5
2014-Jul-23 05:33N 46°14' W 001°41'6 1.4
2014-Jul-23 01:33N 46°08' W 001°38'1010.4
2014-Jul-23 00:33N 46°17' W 001°47'1010.4
2014-Jul-22 23:34N 46°25' W 001°55'1110.5
2014-Jul-22 22:34N 46°34' W 002°04'1010.3
2014-Jul-22 21:33N 46°43' W 002°13'4310.1
2014-Jul-22 17:19N 47°14' W 002°54'810.6
2014-Jul-22 16:33N 47°20' W 003°02'1010.2
2014-Jul-22 15:33N 47°28' W 003°12'1110.6
2014-Jul-22 14:34N 47°37' W 003°20'8 7.8
2014-Jul-22 13:33N 47°45' W 003°19'0 0.0
2014-Jul-22 12:34N 47°45' W 003°19'0 0.0
2014-Jul-22 11:34N 47°45' W 003°19'1 0.9
2014-Jul-22 10:33N 47°44' W 003°20'1 0.6
2014-Jul-22 09:34N 47°44' W 003°21'0 0.0
2014-Jul-22 08:33N 47°44' W 003°21'0 0.0
2014-Jul-22 07:33N 47°44' W 003°21'6 5.5
2014-Jul-22 06:33N 47°39' W 003°22'9 9.2
2014-Jul-22 05:33N 47°31' W 003°14'10 9.4
2014-Jul-22 04:32N 47°23' W 003°07'11 9.2
2014-Jul-22 03:19N 47°15' W 002°55'7 9.1
2014-Jul-22 02:31N 47°10' W 002°48'19 9.0
2014-Jul-22 00:26N 46°56' W 002°30'15 8.2
2014-Jul-21 22:32N 46°44' W 002°14'8 8.6
2014-Jul-21 21:33N 46°37' W 002°07'8 8.3
2014-Jul-21 20:33N 46°30' W 002°01'2 8.2
2014-Jul-21 20:18N 46°29' W 001°59'6 8.1
2014-Jul-21 19:33N 46°24' W 001°54'8 8.3
2014-Jul-21 18:33N 46°17' W 001°47'8 8.4
2014-Jul-21 17:33N 46°10' W 001°41'3 0.8
2014-Jul-21 13:34N 46°13' W 001°42'10 9.9
2014-Jul-21 12:34N 46°23' W 001°45'8 7.5
2014-Jul-21 11:33N 46°30' W 001°48'0 0.0
2014-Jul-21 10:33N 46°30' W 001°48'  
2014-Jul-18 18:21N 46°05' W 001°35'4 2.1
2014-Jul-18 16:27N 46°08' W 001°39'9 9.7
2014-Jul-18 15:32N 46°16' W 001°46'1010.1
2014-Jul-18 14:33N 46°24' W 001°54'1110.5
2014-Jul-18 13:33N 46°33' W 002°03'1110.6
2014-Jul-18 12:33N 46°41' W 002°11'35 5.8
2014-Jul-18 06:28N 47°17' W 002°12'12 2.3
2014-Jul-18 01:23N 47°06' W 002°21'1 0.9
2014-Jul-18 00:25N 47°06' W 002°20'0 0.2
2014-Jul-17 23:21N 47°05' W 002°21'0 0.2
2014-Jul-17 22:32N 47°05' W 002°20'0 0.2
2014-Jul-17 21:32N 47°06' W 002°20'6 1.5
2014-Jul-17 17:21N 47°12' W 002°18'6 0.5
2014-Jul-17 05:33N 47°06' W 002°20'32 8.0
2014-Jul-17 01:32N 47°21' W 003°02'9 9.5
2014-Jul-17 00:33N 47°25' W 003°14'10 9.8
2014-Jul-16 23:34N 47°31' W 003°26'1010.2
2014-Jul-16 22:33N 47°37' W 003°38'1010.4
2014-Jul-16 21:33N 47°44' W 003°50'18 4.4
2014-Jul-16 17:33N 47°58' W 004°06'31 7.4
2014-Jul-16 13:27N 47°36' W 003°34'9 9.7
2014-Jul-16 12:33N 47°30' W 003°24'1010.0
2014-Jul-16 11:33N 47°25' W 003°11'9 0.8
2014-Jul-16 00:32N 47°20' W 003°01'10 9.9
2014-Jul-15 23:33N 47°25' W 003°13'1010.2
2014-Jul-15 22:33N 47°31' W 003°25'1110.9
2014-Jul-15 21:33N 47°38' W 003°38'27 9.1
2014-Jul-15 18:33N 47°57' W 004°07'1 1.4
2014-Jul-15 17:33N 47°58' W 004°06'7 3.3
2014-Jul-15 15:33N 47°52' W 004°06'24 5.8
2014-Jul-15 11:23N 47°37' W 003°37'7 7.9
2014-Jul-15 10:33N 47°33' W 003°30'9 9.0
2014-Jul-15 09:34N 47°28' W 003°19'10 9.7
2014-Jul-15 08:32N 47°23' W 003°07'  
Track history (hours):
 
Tides and Currents Weather Stations Pressure Air Temp Water Temp Dewpoint Dewpoint Depression Visibility Wind Speed Wind Dir Waves Ship Positions

Cotes De Bretagne

Last reported at 2014-Jul-24 01:33 UTC. Time now 2014-Jul-24 01:51 UTC.
Position N 46°30' W 001°48'.

Length 75 m; draft 4.5 m.

Type: Dredging. MMSI: 227003850.

Date/timePositionNaut miles runAvg speedWind from/ knotsBaromVisibWave heightAir tempDewpointWater temp
2014-Jul-24 01:33N 46°30' W 001°48'0 0.0
2014-Jul-24 00:33N 46°30' W 001°48'2 1.7
2014-Jul-23 23:32N 46°28' W 001°47'0 0.0
2014-Jul-23 22:32N 46°28' W 001°47'2 2.3
2014-Jul-23 21:33N 46°26' W 001°46'9 8.7
2014-Jul-23 20:33N 46°18' W 001°44'9 8.7
2014-Jul-23 19:33N 46°10' W 001°39'5 5.0
2014-Jul-23 18:32N 46°05' W 001°35'0 0.1
2014-Jul-23 17:24N 46°05' W 001°36'2 1.7
2014-Jul-23 16:28N 46°06' W 001°36'1010.9
2014-Jul-23 15:33N 46°15' W 001°43'1110.8
2014-Jul-23 14:33N 46°26' W 001°46'4 4.4
2014-Jul-23 13:33N 46°30' W 001°48'0 0.0
2014-Jul-23 12:33N 46°30' W 001°48'2 1.8
2014-Jul-23 11:33N 46°28' W 001°47'0 0.0
2014-Jul-23 10:33N 46°28' W 001°47'0 0.0
2014-Jul-23 09:33N 46°28' W 001°47'0 0.0
2014-Jul-23 08:33N 46°28' W 001°47'0 0.1
2014-Jul-23 07:33N 46°28' W 001°47'7 6.7
2014-Jul-23 06:33N 46°22' W 001°46'9 8.5
2014-Jul-23 05:33N 46°14' W 001°41'6 1.4
2014-Jul-23 01:33N 46°08' W 001°38'1010.4
2014-Jul-23 00:33N 46°17' W 001°47'1010.4
2014-Jul-22 23:34N 46°25' W 001°55'1110.5
2014-Jul-22 22:34N 46°34' W 002°04'1010.3
2014-Jul-22 21:33N 46°43' W 002°13'4310.1
2014-Jul-22 17:19N 47°14' W 002°54'810.6
2014-Jul-22 16:33N 47°20' W 003°02'1010.2
2014-Jul-22 15:33N 47°28' W 003°12'1110.6
2014-Jul-22 14:34N 47°37' W 003°20'8 7.8
2014-Jul-22 13:33N 47°45' W 003°19'0 0.0
2014-Jul-22 12:34N 47°45' W 003°19'0 0.0
2014-Jul-22 11:34N 47°45' W 003°19'1 0.9
2014-Jul-22 10:33N 47°44' W 003°20'1 0.6
2014-Jul-22 09:34N 47°44' W 003°21'0 0.0
2014-Jul-22 08:33N 47°44' W 003°21'0 0.0
2014-Jul-22 07:33N 47°44' W 003°21'6 5.5
2014-Jul-22 06:33N 47°39' W 003°22'9 9.2
2014-Jul-22 05:33N 47°31' W 003°14'10 9.4
2014-Jul-22 04:32N 47°23' W 003°07'11 9.2
2014-Jul-22 03:19N 47°15' W 002°55'7 9.1
2014-Jul-22 02:31N 47°10' W 002°48'19 9.0
2014-Jul-22 00:26N 46°56' W 002°30'15 8.2
2014-Jul-21 22:32N 46°44' W 002°14'8 8.6
2014-Jul-21 21:33N 46°37' W 002°07'8 8.3
2014-Jul-21 20:33N 46°30' W 002°01'2 8.2
2014-Jul-21 20:18N 46°29' W 001°59'6 8.1
2014-Jul-21 19:33N 46°24' W 001°54'8 8.3
2014-Jul-21 18:33N 46°17' W 001°47'8 8.4
2014-Jul-21 17:33N 46°10' W 001°41'3 0.8
2014-Jul-21 13:34N 46°13' W 001°42'10 9.9
2014-Jul-21 12:34N 46°23' W 001°45'8 7.5
2014-Jul-21 11:33N 46°30' W 001°48'0 0.0
2014-Jul-21 10:33N 46°30' W 001°48'  
2014-Jul-18 18:21N 46°05' W 001°35'4 2.1
2014-Jul-18 16:27N 46°08' W 001°39'9 9.7
2014-Jul-18 15:32N 46°16' W 001°46'1010.1
2014-Jul-18 14:33N 46°24' W 001°54'1110.5
2014-Jul-18 13:33N 46°33' W 002°03'1110.6
2014-Jul-18 12:33N 46°41' W 002°11'35 5.8
2014-Jul-18 06:28N 47°17' W 002°12'12 2.3
2014-Jul-18 01:23N 47°06' W 002°21'1 0.9
2014-Jul-18 00:25N 47°06' W 002°20'0 0.2
2014-Jul-17 23:21N 47°05' W 002°21'0 0.2
2014-Jul-17 22:32N 47°05' W 002°20'0 0.2
2014-Jul-17 21:32N 47°06' W 002°20'6 1.5
2014-Jul-17 17:21N 47°12' W 002°18'6 0.5
2014-Jul-17 05:33N 47°06' W 002°20'32 8.0
2014-Jul-17 01:32N 47°21' W 003°02'9 9.5
2014-Jul-17 00:33N 47°25' W 003°14'10 9.8
2014-Jul-16 23:34N 47°31' W 003°26'1010.2
2014-Jul-16 22:33N 47°37' W 003°38'1010.4
2014-Jul-16 21:33N 47°44' W 003°50'18 4.4
2014-Jul-16 17:33N 47°58' W 004°06'31 7.4
2014-Jul-16 13:27N 47°36' W 003°34'9 9.7
2014-Jul-16 12:33N 47°30' W 003°24'1010.0
2014-Jul-16 11:33N 47°25' W 003°11'9 0.8
2014-Jul-16 00:32N 47°20' W 003°01'10 9.9
2014-Jul-15 23:33N 47°25' W 003°13'1010.2
2014-Jul-15 22:33N 47°31' W 003°25'1110.9
2014-Jul-15 21:33N 47°38' W 003°38'27 9.1
2014-Jul-15 18:33N 47°57' W 004°07'1 1.4
2014-Jul-15 17:33N 47°58' W 004°06'7 3.3
2014-Jul-15 15:33N 47°52' W 004°06'24 5.8
2014-Jul-15 11:23N 47°37' W 003°37'7 7.9
2014-Jul-15 10:33N 47°33' W 003°30'9 9.0
2014-Jul-15 09:34N 47°28' W 003°19'10 9.7
2014-Jul-15 08:32N 47°23' W 003°07'  

Dump ship's entire track history